createdAt,value
2022-12-25T00:00:52.381Z,6.21429
2022-12-25T00:01:52.250Z,6.85714
2022-12-25T00:02:52.321Z,6.35714
2022-12-25T00:03:52.579Z,7.14286
2022-12-25T00:04:52.320Z,6
2022-12-25T00:05:52.347Z,6.14286
2022-12-25T00:06:52.371Z,5.64286
2022-12-25T00:07:52.411Z,5.92857
2022-12-25T00:08:52.441Z,5.64286
2022-12-25T00:09:52.477Z,5.85714
2022-12-25T00:10:52.520Z,5.71429
2022-12-25T00:11:52.545Z,5.5
2022-12-25T00:12:52.586Z,5.92857
2022-12-25T00:13:52.603Z,5.71429
2022-12-25T00:14:52.639Z,5.35714
2022-12-25T00:15:52.720Z,5.42857
2022-12-25T00:16:52.716Z,5.85714
2022-12-25T00:17:52.743Z,5.85714
2022-12-25T00:18:52.785Z,5.5
2022-12-25T00:19:52.824Z,5.35714
2022-12-25T00:20:52.865Z,5.5
2022-12-25T00:21:52.890Z,5.71429
2022-12-25T00:22:52.924Z,4.5
2022-12-25T00:23:52.983Z,5.14286
2022-12-25T00:24:53.028Z,5.21429
2022-12-25T00:25:53.068Z,5.21429
2022-12-25T00:26:53.098Z,4.85714
2022-12-25T00:27:53.121Z,4.5
2022-12-25T00:28:53.152Z,4.92857
2022-12-25T00:29:53.188Z,4.71429
2022-12-25T00:30:53.236Z,4.64286
2022-12-25T00:31:53.313Z,4.14286
2022-12-25T00:32:53.304Z,4.14286
2022-12-25T00:33:53.343Z,3.92857
2022-12-25T00:34:53.371Z,3.85714
2022-12-25T00:35:53.401Z,3.5
2022-12-25T00:36:53.445Z,3.42857
2022-12-25T00:37:53.469Z,3.42857
2022-12-25T00:38:53.506Z,3.35714
2022-12-25T00:39:53.533Z,3.42857
2022-12-25T00:40:53.572Z,3.85714
2022-12-25T00:41:53.604Z,3.21429
2022-12-25T00:42:53.645Z,3.5
2022-12-25T00:43:53.680Z,3.42857
2022-12-25T00:44:53.721Z,3.35714
2022-12-25T00:45:53.816Z,3.5
2022-12-25T00:46:53.875Z,3.5
2022-12-25T00:47:53.825Z,3.92857
2022-12-25T00:48:53.851Z,3.85714
2022-12-25T00:49:53.881Z,3.64286
2022-12-25T00:50:53.920Z,4.14286
2022-12-25T00:51:53.957Z,3.85714
2022-12-25T00:52:53.991Z,3.71429
2022-12-25T00:53:54.024Z,3.92857
2022-12-25T00:54:54.057Z,3.85714
2022-12-25T00:55:54.093Z,3.64286
2022-12-25T00:56:54.119Z,4.14286
2022-12-25T00:57:54.160Z,5
2022-12-25T00:58:54.188Z,5.14286
2022-12-25T00:59:54.226Z,5.21429
2022-12-25T01:00:54.344Z,5
2022-12-25T01:01:54.498Z,5.21429
2022-12-25T01:02:54.502Z,4.42857
2022-12-25T01:03:54.377Z,4.14286
2022-12-25T01:04:54.415Z,3.5
2022-12-25T01:05:54.455Z,3.21429
2022-12-25T01:06:54.490Z,3.35714
2022-12-25T01:07:54.529Z,3.14286
2022-12-25T01:08:54.562Z,3.14286
2022-12-25T01:09:54.633Z,3.5
2022-12-25T01:10:54.636Z,3.71429
2022-12-25T01:11:54.679Z,3.64286
2022-12-25T01:12:54.717Z,3.5
2022-12-25T01:13:54.752Z,3.64286
2022-12-25T01:14:54.805Z,3.64286
2022-12-25T01:15:54.944Z,4.42857
2022-12-25T01:16:54.950Z,3.85714
2022-12-25T01:17:54.897Z,4
2022-12-25T01:18:54.952Z,3.64286
2022-12-25T01:19:55.044Z,3.92857
2022-12-25T01:20:55.023Z,3.64286
2022-12-25T01:21:55.040Z,3.5
2022-12-25T01:22:55.075Z,3.71429
2022-12-25T01:23:55.123Z,3.5
2022-12-25T01:24:55.144Z,3.71429
2022-12-25T01:25:55.180Z,3.92857
2022-12-25T01:26:55.220Z,4
2022-12-25T01:27:55.254Z,3.64286
2022-12-25T01:28:55.293Z,3.92857
2022-12-25T01:29:55.324Z,3.5
2022-12-25T01:30:55.371Z,3.71429
2022-12-25T01:31:55.514Z,3.92857
2022-12-25T01:32:55.432Z,3.71429
2022-12-25T01:33:55.476Z,3.5
2022-12-25T01:34:56.173Z,4.14286
2022-12-25T01:35:55.547Z,3.92857
2022-12-25T01:36:55.583Z,4.14286
2022-12-25T01:37:55.621Z,5.5
2022-12-25T01:38:55.668Z,6.42857
2022-12-25T01:39:55.693Z,6.42857
2022-12-25T01:40:55.724Z,6.35714
2022-12-25T01:41:55.752Z,5.5
2022-12-25T01:42:55.783Z,5.14286
2022-12-25T01:43:55.819Z,6.64286
2022-12-25T01:44:55.860Z,6.21429
2022-12-25T01:45:55.956Z,6
2022-12-25T01:46:55.926Z,6.14286
2022-12-25T01:47:55.960Z,7.21429
2022-12-25T01:48:56.009Z,6.5
2022-12-25T01:49:56.043Z,5.92857
2022-12-25T01:50:56.065Z,5.64286
2022-12-25T01:51:56.111Z,5.5
2022-12-25T01:52:56.144Z,5.92857
2022-12-25T01:53:56.176Z,6.14286
2022-12-25T01:54:56.214Z,6
2022-12-25T01:55:56.247Z,5.85714
2022-12-25T01:56:56.287Z,5.85714
2022-12-25T01:57:56.319Z,5.85714
2022-12-25T01:58:56.351Z,5.92857
2022-12-25T01:59:56.399Z,5.42857
2022-12-25T02:00:56.520Z,5.42857
2022-12-25T02:01:56.697Z,5.35714
2022-12-25T02:02:56.595Z,4.92857
2022-12-25T02:03:56.531Z,5.92857
2022-12-25T02:04:56.571Z,5.71429
2022-12-25T02:05:56.609Z,5.5
2022-12-25T02:06:56.652Z,5.5
2022-12-25T02:07:56.691Z,5.5
2022-12-25T02:08:56.713Z,5.35714
2022-12-25T02:09:56.749Z,5.42857
2022-12-25T02:10:56.794Z,5.14286
2022-12-25T02:11:56.831Z,5.42857
2022-12-25T02:12:56.860Z,4.85714
2022-12-25T02:13:56.892Z,4.64286
2022-12-25T02:15:02.799Z,4.85714
2022-12-25T02:15:56.965Z,4.85714
2022-12-25T02:16:58.825Z,4.14286
2022-12-25T02:17:57.031Z,4
2022-12-25T02:18:57.077Z,3.5
2022-12-25T02:19:57.179Z,3.85714
2022-12-25T02:20:57.149Z,3.64286
2022-12-25T02:21:57.180Z,3.64286
2022-12-25T02:22:57.224Z,3.64286
2022-12-25T02:23:57.262Z,3.42857
2022-12-25T02:24:57.287Z,3.64286
2022-12-25T02:25:57.319Z,3.64286
2022-12-25T02:26:57.354Z,3.14286
2022-12-25T02:27:57.403Z,3.42857
2022-12-25T02:28:57.428Z,3.71429
2022-12-25T02:29:57.511Z,3.42857
2022-12-25T02:30:57.512Z,3.64286
2022-12-25T02:31:57.632Z,3.64286
2022-12-25T02:32:57.579Z,3.42857
2022-12-25T02:33:57.624Z,3.42857
2022-12-25T02:34:57.668Z,3.42857
2022-12-25T02:35:57.684Z,3.14286
2022-12-25T02:36:57.720Z,3.71429
2022-12-25T02:37:57.747Z,3.5
2022-12-25T02:38:57.799Z,3.35714
2022-12-25T02:39:57.899Z,3.35714
2022-12-25T02:40:57.852Z,3.85714
2022-12-25T02:41:57.904Z,3.35714
2022-12-25T02:42:57.926Z,3.21429
2022-12-25T02:43:57.975Z,3.42857
2022-12-25T02:44:58.009Z,3.64286
2022-12-25T02:45:58.075Z,3.5
2022-12-25T02:46:58.069Z,3.71429
2022-12-25T02:47:58.099Z,3.35714
2022-12-25T02:48:58.156Z,3.85714
2022-12-25T02:49:58.201Z,3.64286
2022-12-25T02:50:58.213Z,3.64286
2022-12-25T02:51:58.245Z,3.71429
2022-12-25T02:52:58.291Z,3.35714
2022-12-25T02:53:58.330Z,3.21429
2022-12-25T02:54:58.345Z,3.42857
2022-12-25T02:55:58.386Z,3.85714
2022-12-25T02:56:58.426Z,3.71429
2022-12-25T02:57:58.465Z,3.42857
2022-12-25T02:58:58.508Z,3.35714
2022-12-25T02:59:58.529Z,3.5
2022-12-25T03:00:58.674Z,3.85714
2022-12-25T03:01:58.739Z,3.92857
2022-12-25T03:02:58.674Z,4
2022-12-25T03:03:58.697Z,4
2022-12-25T03:04:58.698Z,4
2022-12-25T03:05:58.747Z,3.5
2022-12-25T03:06:58.762Z,4.35714
2022-12-25T03:07:58.801Z,3.71429
2022-12-25T03:08:58.844Z,3.71429
2022-12-25T03:09:58.871Z,3.71429
2022-12-25T03:10:58.903Z,3.64286
2022-12-25T03:11:58.947Z,3.85714
2022-12-25T03:12:58.988Z,3.64286
2022-12-25T03:13:59.009Z,3.92857
2022-12-25T03:14:59.036Z,3.92857
2022-12-25T03:15:59.083Z,4.42857
2022-12-25T03:16:59.160Z,4
2022-12-25T03:17:59.154Z,3.85714
2022-12-25T03:18:59.179Z,4.42857
2022-12-25T03:19:59.200Z,4.21429
2022-12-25T03:20:59.242Z,4.21429
2022-12-25T03:21:59.281Z,4.42857
2022-12-25T03:22:59.316Z,4.35714
2022-12-25T03:23:59.345Z,4
2022-12-25T03:24:59.381Z,3.92857
2022-12-25T03:25:59.428Z,4.35714
2022-12-25T03:26:59.458Z,5
2022-12-25T03:27:59.510Z,4.42857
2022-12-25T03:28:59.520Z,4.5
2022-12-25T03:29:59.562Z,4.92857
2022-12-25T03:30:59.694Z,4.71429
2022-12-25T03:31:59.655Z,4.92857
2022-12-25T03:32:59.664Z,5
2022-12-25T03:33:59.687Z,4.85714
2022-12-25T03:34:59.721Z,4.85714
2022-12-25T03:35:59.749Z,5.14286
2022-12-25T03:36:59.795Z,5
2022-12-25T03:37:59.815Z,4.71429
2022-12-25T03:38:59.846Z,4.85714
2022-12-25T03:39:59.884Z,4.71429
2022-12-25T03:40:59.931Z,4.5
2022-12-25T03:41:59.945Z,4.5
2022-12-25T03:42:59.980Z,4.35714
2022-12-25T03:44:00.018Z,4.42857
2022-12-25T03:45:00.054Z,4.42857
2022-12-25T03:46:00.164Z,5
2022-12-25T03:47:00.133Z,4.64286
2022-12-25T03:48:00.177Z,4.5
2022-12-25T03:49:00.182Z,5
2022-12-25T03:50:00.229Z,3.92857
2022-12-25T03:51:00.266Z,4.92857
2022-12-25T03:52:00.292Z,4.85714
2022-12-25T03:53:00.326Z,5.21429
2022-12-25T03:54:00.350Z,4.92857
2022-12-25T03:55:00.381Z,5.71429
2022-12-25T03:56:00.425Z,4.92857
2022-12-25T03:57:00.464Z,4.71429
2022-12-25T03:58:00.484Z,5.42857
2022-12-25T03:59:00.527Z,5.5
2022-12-25T04:00:00.565Z,5
2022-12-25T04:01:00.719Z,5.14286
2022-12-25T04:02:00.779Z,5.14286
2022-12-25T04:03:00.691Z,5.5
2022-12-25T04:04:00.685Z,5.71429
2022-12-25T04:05:00.718Z,5.71429
2022-12-25T04:06:00.760Z,5.64286
2022-12-25T04:07:00.796Z,6.21429
2022-12-25T04:08:00.817Z,5.71429
2022-12-25T04:09:00.859Z,6.14286
2022-12-25T04:10:00.892Z,5.64286
2022-12-25T04:11:00.927Z,5.5
2022-12-25T04:12:03.115Z,5.85714
2022-12-25T04:13:00.991Z,5.92857
2022-12-25T04:14:01.003Z,5.92857
2022-12-25T04:15:01.042Z,5.5
2022-12-25T04:16:01.212Z,5.35714
2022-12-25T04:17:01.109Z,6.14286
2022-12-25T04:18:01.140Z,6.21429
2022-12-25T04:19:01.176Z,6.14286
2022-12-25T04:20:01.204Z,5.42857
2022-12-25T04:21:01.241Z,5.64286
2022-12-25T04:22:01.276Z,5.21429
2022-12-25T04:23:01.306Z,5.42857
2022-12-25T04:24:01.355Z,5.14286
2022-12-25T04:25:01.399Z,5.71429
2022-12-25T04:26:01.420Z,5.42857
2022-12-25T04:27:01.446Z,5
2022-12-25T04:28:01.479Z,5.5
2022-12-25T04:29:01.517Z,5.42857
2022-12-25T04:30:01.558Z,5.85714
2022-12-25T04:31:01.596Z,6.21429
2022-12-25T04:32:01.660Z,5.64286
2022-12-25T04:33:01.694Z,5.71429
2022-12-25T04:34:01.713Z,5.71429
2022-12-25T04:35:01.766Z,5.21429
2022-12-25T04:36:01.780Z,5.71429
2022-12-25T04:37:01.816Z,4.85714
2022-12-25T04:38:01.898Z,5.35714
2022-12-25T04:39:01.883Z,5.5
2022-12-25T04:40:01.919Z,5.21429
2022-12-25T04:41:01.971Z,4.85714
2022-12-25T04:42:02.005Z,5.35714
2022-12-25T04:43:02.035Z,5.14286
2022-12-25T04:44:02.103Z,5.85714
2022-12-25T04:45:02.110Z,5.71429
2022-12-25T04:46:02.253Z,5.64286
2022-12-25T04:47:07.490Z,5.85714
2022-12-25T04:48:02.213Z,6.14286
2022-12-25T04:49:02.255Z,5.92857
2022-12-25T04:50:02.295Z,5.71429
2022-12-25T04:51:02.322Z,5.64286
2022-12-25T04:52:02.359Z,5.85714
2022-12-25T04:53:02.390Z,5.85714
2022-12-25T04:54:02.444Z,5.64286
2022-12-25T04:55:02.482Z,6
2022-12-25T04:56:02.506Z,5.14286
2022-12-25T04:57:02.536Z,5.35714
2022-12-25T04:58:02.577Z,4.92857
2022-12-25T04:59:02.615Z,4.92857
2022-12-25T05:00:02.648Z,5
2022-12-25T05:01:02.694Z,5.42857
2022-12-25T05:02:02.832Z,5.42857
2022-12-25T05:03:03.045Z,5.42857
2022-12-25T05:04:02.794Z,5.64286
2022-12-25T05:05:02.825Z,5.71429
2022-12-25T05:06:02.867Z,5.42857
2022-12-25T05:07:02.901Z,5.35714
2022-12-25T05:08:02.986Z,5.64286
2022-12-25T05:09:02.969Z,5.42857
2022-12-25T05:10:03.029Z,5.14286
2022-12-25T05:11:03.043Z,5.85714
2022-12-25T05:12:03.104Z,6
2022-12-25T05:13:03.120Z,5
2022-12-25T05:14:03.141Z,5
2022-12-25T05:15:03.181Z,4.64286
2022-12-25T05:16:03.254Z,4.85714
2022-12-25T05:17:03.253Z,4.71429
2022-12-25T05:18:03.285Z,4.85714
2022-12-25T05:19:03.324Z,5
2022-12-25T05:20:03.370Z,5.14286
2022-12-25T05:21:03.404Z,4.92857
2022-12-25T05:22:03.444Z,5.14286
2022-12-25T05:23:03.479Z,5.64286
2022-12-25T05:24:03.526Z,5.71429
2022-12-25T05:25:03.556Z,6
2022-12-25T05:26:03.587Z,6.71429
2022-12-25T05:27:03.617Z,6.92857
2022-12-25T05:28:03.669Z,6.42857
2022-12-25T05:29:03.695Z,6.92857
2022-12-25T05:30:03.723Z,7.5
2022-12-25T05:31:03.876Z,6.92857
2022-12-25T05:32:03.786Z,6.85714
2022-12-25T05:33:03.809Z,7.21429
2022-12-25T05:34:03.863Z,7.21429
2022-12-25T05:35:03.882Z,7.14286
2022-12-25T05:36:03.916Z,7.21429
2022-12-25T05:37:03.951Z,6.92857
2022-12-25T05:38:03.995Z,7.35714
2022-12-25T05:39:04.036Z,6.64286
2022-12-25T05:40:04.065Z,6.92857
2022-12-25T05:41:04.079Z,6.92857
2022-12-25T05:42:04.118Z,6.64286
2022-12-25T05:43:04.153Z,6.85714
2022-12-25T05:44:04.188Z,6.64286
2022-12-25T05:45:04.227Z,6.5
2022-12-25T05:46:04.448Z,6.42857
2022-12-25T05:47:04.530Z,7
2022-12-25T05:48:04.325Z,7
2022-12-25T05:49:04.357Z,6.64286
2022-12-25T05:50:04.388Z,7.21429
2022-12-25T05:51:04.417Z,6.85714
2022-12-25T05:52:04.453Z,7.35714
2022-12-25T05:53:08.308Z,6.21429
2022-12-25T05:54:04.530Z,6.71429
2022-12-25T05:55:04.568Z,7.14286
2022-12-25T05:56:04.595Z,6.92857
2022-12-25T05:57:04.633Z,6.71429
2022-12-25T05:58:04.668Z,6.85714
2022-12-25T05:59:04.702Z,7.71429
2022-12-25T06:00:04.731Z,8
2022-12-25T06:01:04.773Z,7.14286
2022-12-25T06:02:05.019Z,7.35714
2022-12-25T06:03:05.022Z,6.64286
2022-12-25T06:04:10.354Z,5.85714
2022-12-25T06:05:04.904Z,6.71429
2022-12-25T06:06:04.926Z,6.5
2022-12-25T06:07:04.975Z,6
2022-12-25T06:08:04.996Z,5.92857
2022-12-25T06:09:05.042Z,5
2022-12-25T06:10:05.074Z,4.42857
2022-12-25T06:11:05.117Z,4.35714
2022-12-25T06:12:05.141Z,4.64286
2022-12-25T06:13:05.176Z,5.42857
2022-12-25T06:14:05.216Z,6.42857
2022-12-25T06:15:05.248Z,6.35714
2022-12-25T06:16:05.328Z,7.5
2022-12-25T06:17:05.359Z,8
2022-12-25T06:18:05.335Z,7.21429
2022-12-25T06:19:05.396Z,6.71429
2022-12-25T06:20:05.413Z,7.35714
2022-12-25T06:21:05.431Z,7.5
2022-12-25T06:22:05.480Z,7.21429
2022-12-25T06:23:05.502Z,7.85714
2022-12-25T06:24:05.660Z,8
2022-12-25T06:25:05.597Z,7.85714
2022-12-25T06:26:05.605Z,7.64286
2022-12-25T06:27:05.645Z,7
2022-12-25T06:28:05.665Z,7.92857
2022-12-25T06:29:05.705Z,6.71429
2022-12-25T06:30:05.721Z,6.64286
2022-12-25T06:31:05.790Z,8.64286
2022-12-25T06:32:05.866Z,8.35714
2022-12-25T06:33:05.819Z,8
2022-12-25T06:34:05.873Z,7.71429
2022-12-25T06:35:05.906Z,7
2022-12-25T06:36:05.976Z,7.35714
2022-12-25T06:37:05.968Z,6.64286
2022-12-25T06:38:06.002Z,6.92857
2022-12-25T06:39:06.027Z,6.64286
2022-12-25T06:40:06.062Z,5.85714
2022-12-25T06:41:06.111Z,5.71429
2022-12-25T06:42:06.155Z,6.5
2022-12-25T06:43:06.177Z,6.14286
2022-12-25T06:44:06.224Z,6
2022-12-25T06:45:06.231Z,6
2022-12-25T06:46:06.441Z,6.14286
2022-12-25T06:47:06.301Z,6.85714
2022-12-25T06:48:06.339Z,6.92857
2022-12-25T06:49:06.381Z,6.71429
2022-12-25T06:50:06.406Z,6.92857
2022-12-25T06:51:06.448Z,6.21429
2022-12-25T06:52:06.482Z,7
2022-12-25T06:53:06.518Z,6.14286
2022-12-25T06:54:06.541Z,6.64286
2022-12-25T06:55:06.583Z,6.42857
2022-12-25T06:56:06.626Z,7.21429
2022-12-25T06:57:06.649Z,6.64286
2022-12-25T06:58:06.691Z,6.21429
2022-12-25T06:59:06.713Z,6.71429
2022-12-25T07:00:06.771Z,6.71429
2022-12-25T07:01:06.920Z,6.35714
2022-12-25T07:02:06.935Z,6.92857
2022-12-25T07:03:06.948Z,7
2022-12-25T07:04:06.906Z,6.64286
2022-12-25T07:05:06.941Z,6.85714
2022-12-25T07:06:06.979Z,6.92857
2022-12-25T07:07:09.266Z,7.14286
2022-12-25T07:08:07.039Z,6.21429
2022-12-25T07:09:07.059Z,6.42857
2022-12-25T07:10:07.102Z,6.85714
2022-12-25T07:11:07.129Z,7
2022-12-25T07:12:07.184Z,6.64286
2022-12-25T07:13:07.212Z,6.35714
2022-12-25T07:14:07.249Z,7.14286
2022-12-25T07:15:07.281Z,6.71429
2022-12-25T07:16:07.354Z,7.42857
2022-12-25T07:17:07.339Z,8
2022-12-25T07:18:07.375Z,7.64286
2022-12-25T07:19:07.407Z,6.71429
2022-12-25T07:20:07.461Z,7.35714
2022-12-25T07:21:07.492Z,7
2022-12-25T07:22:07.516Z,6.85714
2022-12-25T07:23:07.546Z,7.21429
2022-12-25T07:24:07.582Z,7.71429
2022-12-25T07:25:07.619Z,7.42857
2022-12-25T07:26:07.659Z,7.42857
2022-12-25T07:27:07.686Z,7.42857
2022-12-25T07:28:07.754Z,7.92857
2022-12-25T07:29:07.767Z,8.5
2022-12-25T07:30:07.799Z,8.21429
2022-12-25T07:31:07.834Z,8
2022-12-25T07:32:07.986Z,8.21429
2022-12-25T07:33:07.903Z,8
2022-12-25T07:34:07.938Z,8.42857
2022-12-25T07:35:07.973Z,8.42857
2022-12-25T07:36:08.033Z,8.14286
2022-12-25T07:37:08.046Z,8.64286
2022-12-25T07:38:08.099Z,8.42857
2022-12-25T07:39:08.130Z,8.21429
2022-12-25T07:40:08.158Z,8.64286
2022-12-25T07:41:08.189Z,7.92857
2022-12-25T07:42:08.212Z,8.85714
2022-12-25T07:43:08.253Z,8.42857
2022-12-25T07:44:08.292Z,8.14286
2022-12-25T07:45:08.397Z,8.14286
2022-12-25T07:46:08.909Z,8.21429
2022-12-25T07:47:08.936Z,8.21429
2022-12-25T07:48:15.342Z,7.5
2022-12-25T07:49:08.988Z,8.35714
2022-12-25T07:50:09.032Z,8.42857
2022-12-25T07:51:09.060Z,8.92857
2022-12-25T07:52:09.095Z,8.85714
2022-12-25T07:53:09.124Z,9.14286
2022-12-25T07:54:09.150Z,7.71429
2022-12-25T07:55:09.197Z,8.14286
2022-12-25T07:56:09.235Z,8.85714
2022-12-25T07:57:09.260Z,8.92857
2022-12-25T07:58:09.296Z,9.14286
2022-12-25T07:59:09.344Z,9.5
2022-12-25T08:00:09.376Z,8.35714
2022-12-25T08:01:09.559Z,8.35714
2022-12-25T08:02:09.601Z,8.42857
2022-12-25T08:03:09.622Z,8.71429
2022-12-25T08:04:09.599Z,9.5
2022-12-25T08:05:09.561Z,9.14286
2022-12-25T08:06:09.634Z,8.42857
2022-12-25T08:07:09.618Z,8.14286
2022-12-25T08:08:09.661Z,8
2022-12-25T08:09:09.749Z,7.85714
2022-12-25T08:10:09.712Z,7.42857
2022-12-25T08:11:09.759Z,7.85714
2022-12-25T08:12:09.777Z,7.42857
2022-12-25T08:13:14.421Z,7.5
2022-12-25T08:14:09.870Z,7.5
2022-12-25T08:15:09.874Z,7.42857
2022-12-25T08:16:09.908Z,7
2022-12-25T08:17:09.982Z,7.21429
2022-12-25T08:18:09.973Z,7
2022-12-25T08:19:10.006Z,6.85714
2022-12-25T08:20:10.035Z,7.14286
2022-12-25T08:21:10.109Z,6.71429
2022-12-25T08:22:10.090Z,6.85714
2022-12-25T08:23:10.132Z,6.85714
2022-12-25T08:24:10.167Z,6.92857
2022-12-25T08:25:10.192Z,6.64286
2022-12-25T08:26:10.233Z,7.42857
2022-12-25T08:27:10.299Z,6.71429
2022-12-25T08:28:10.297Z,7.85714
2022-12-25T08:29:10.343Z,7.92857
2022-12-25T08:30:10.370Z,7.64286
2022-12-25T08:31:10.571Z,7.71429
2022-12-25T08:32:10.446Z,7
2022-12-25T08:33:10.468Z,7.21429
2022-12-25T08:34:10.501Z,7.64286
2022-12-25T08:35:10.542Z,6.85714
2022-12-25T08:36:10.585Z,6.35714
2022-12-25T08:37:10.617Z,6.64286
2022-12-25T08:38:10.686Z,6.64286
2022-12-25T08:39:10.710Z,6.92857
2022-12-25T08:40:10.725Z,6.64286
2022-12-25T08:41:10.756Z,6.14286
2022-12-25T08:42:10.796Z,6.5
2022-12-25T08:43:10.818Z,6.14286
2022-12-25T08:44:10.861Z,6.5
2022-12-25T08:45:10.904Z,6.71429
2022-12-25T08:46:11.348Z,6.21429
2022-12-25T08:47:11.354Z,6.35714
2022-12-25T08:48:11.385Z,11.8571
2022-12-25T08:49:11.423Z,17.9286
2022-12-25T08:50:11.464Z,21.4286
2022-12-25T08:51:11.485Z,17.6429
2022-12-25T08:52:11.539Z,9.85714
2022-12-25T08:53:11.555Z,7.85714
2022-12-25T08:54:11.605Z,6.92857
2022-12-25T08:55:11.629Z,7.14286
2022-12-25T08:56:11.663Z,7.85714
2022-12-25T08:57:11.688Z,7.92857
2022-12-25T08:58:11.727Z,6.64286
2022-12-25T08:59:11.788Z,7
2022-12-25T09:00:11.808Z,6.85714
2022-12-25T09:01:11.987Z,8.35714
2022-12-25T09:02:12.088Z,8.21429
2022-12-25T09:03:12.118Z,7.35714
2022-12-25T09:04:11.948Z,6.85714
2022-12-25T09:05:11.972Z,6.5
2022-12-25T09:06:12.007Z,6.92857
2022-12-25T09:07:12.043Z,6.71429
2022-12-25T09:08:12.080Z,7.35714
2022-12-25T09:09:12.100Z,6.85714
2022-12-25T09:10:12.158Z,6.71429
2022-12-25T09:11:12.171Z,6
2022-12-25T09:12:12.199Z,5.5
2022-12-25T09:13:12.225Z,5.85714
2022-12-25T09:14:12.269Z,5.5
2022-12-25T09:15:12.322Z,5.21429
2022-12-25T09:16:12.449Z,5.64286
2022-12-25T09:17:12.370Z,5.42857
2022-12-25T09:18:12.410Z,5.35714
2022-12-25T09:19:12.436Z,5.14286
2022-12-25T09:20:12.475Z,5.21429
2022-12-25T09:21:12.523Z,5.42857
2022-12-25T09:22:12.539Z,5.5
2022-12-25T09:23:14.393Z,5.21429
2022-12-25T09:24:12.601Z,5
2022-12-25T09:25:12.636Z,5.14286
2022-12-25T09:26:12.666Z,4.85714
2022-12-25T09:27:12.698Z,5.21429
2022-12-25T09:28:12.728Z,5.42857
2022-12-25T09:29:12.756Z,5.42857
2022-12-25T09:30:12.795Z,5.64286
2022-12-25T09:31:12.964Z,5.5
2022-12-25T09:32:12.843Z,6
2022-12-25T09:33:12.890Z,6.35714
2022-12-25T09:34:17.179Z,5.92857
2022-12-25T09:35:12.948Z,6.21429
2022-12-25T09:36:12.999Z,6.35714
2022-12-25T09:37:13.023Z,6.42857
2022-12-25T09:38:13.057Z,6.35714
2022-12-25T09:39:13.098Z,6.35714
2022-12-25T09:40:13.126Z,5.64286
2022-12-25T09:41:13.176Z,6.35714
2022-12-25T09:42:13.194Z,6.21429
2022-12-25T09:43:13.238Z,6.14286
2022-12-25T09:44:13.263Z,6.35714
2022-12-25T09:45:13.307Z,6.42857
2022-12-25T09:46:13.448Z,5.71429
2022-12-25T09:47:13.401Z,5.5
2022-12-25T09:48:13.414Z,6.85714
2022-12-25T09:49:13.453Z,7.14286
2022-12-25T09:50:13.485Z,6.42857
2022-12-25T09:51:13.535Z,7.42857
2022-12-25T09:52:13.558Z,6.42857
2022-12-25T09:53:13.587Z,6.85714
2022-12-25T09:54:13.633Z,6.85714
2022-12-25T09:55:19.768Z,6.5
2022-12-25T09:56:13.679Z,6.64286
2022-12-25T09:57:13.724Z,6.92857
2022-12-25T09:58:13.746Z,6.64286
2022-12-25T09:59:13.773Z,6.92857
2022-12-25T10:00:13.809Z,7.21429
2022-12-25T10:01:13.866Z,7.21429
2022-12-25T10:02:14.027Z,7.35714
2022-12-25T10:03:14.207Z,7.35714
2022-12-25T10:04:13.950Z,7.21429
2022-12-25T10:05:14.003Z,7.42857
2022-12-25T10:06:14.026Z,6.71429
2022-12-25T10:07:14.055Z,7.42857
2022-12-25T10:08:14.089Z,6.64286
2022-12-25T10:09:14.125Z,7.14286
2022-12-25T10:10:14.169Z,7
2022-12-25T10:11:14.235Z,7.35714
2022-12-25T10:12:14.228Z,6.71429
2022-12-25T10:13:14.253Z,7.21429
2022-12-25T10:14:14.302Z,6.71429
2022-12-25T10:15:14.325Z,7.5
2022-12-25T10:16:14.384Z,6.85714
2022-12-25T10:17:14.410Z,7
2022-12-25T10:18:14.437Z,7.71429
2022-12-25T10:19:14.483Z,7
2022-12-25T10:20:14.515Z,7.35714
2022-12-25T10:21:14.567Z,7.85714
2022-12-25T10:22:14.621Z,7.64286
2022-12-25T10:23:14.638Z,7.92857
2022-12-25T10:24:14.663Z,8
2022-12-25T10:25:14.724Z,7.85714
2022-12-25T10:26:14.727Z,7.85714
2022-12-25T10:27:14.781Z,7.85714
2022-12-25T10:28:14.807Z,7.85714
2022-12-25T10:29:14.840Z,8.14286
2022-12-25T10:30:14.879Z,8
2022-12-25T10:31:14.993Z,8.42857
2022-12-25T10:32:14.951Z,7.71429
2022-12-25T10:33:17.149Z,7.71429
2022-12-25T10:34:15.013Z,7.92857
2022-12-25T10:35:15.046Z,7.71429
2022-12-25T10:36:15.082Z,8.14286
2022-12-25T10:37:15.116Z,8.5
2022-12-25T10:38:15.159Z,8.42857
2022-12-25T10:39:15.175Z,8.64286
2022-12-25T10:40:15.206Z,7.64286
2022-12-25T10:41:15.247Z,8.35714
2022-12-25T10:42:15.282Z,8
2022-12-25T10:43:15.332Z,8.5
2022-12-25T10:44:15.341Z,8
2022-12-25T10:45:15.374Z,8.64286
2022-12-25T10:46:15.456Z,8.92857
2022-12-25T10:47:15.439Z,8.21429
2022-12-25T10:48:15.475Z,7.92857
2022-12-25T10:49:15.541Z,8.35714
2022-12-25T10:50:15.539Z,8.14286
2022-12-25T10:51:15.574Z,8.5
2022-12-25T10:52:15.616Z,7.92857
2022-12-25T10:53:15.636Z,7.71429
2022-12-25T10:54:15.721Z,8.64286
2022-12-25T10:55:15.699Z,7.85714
2022-12-25T10:56:15.733Z,8.5
2022-12-25T10:57:15.759Z,8.21429
2022-12-25T10:58:15.789Z,8.21429
2022-12-25T10:59:15.841Z,7.5
2022-12-25T11:00:15.915Z,7.64286
2022-12-25T11:01:16.008Z,8.35714
2022-12-25T11:02:16.122Z,7.71429
2022-12-25T11:03:16.153Z,7.71429
2022-12-25T11:04:16.003Z,8.14286
2022-12-25T11:05:16.039Z,7.85714
2022-12-25T11:06:16.070Z,7.85714
2022-12-25T11:07:16.108Z,8.5
2022-12-25T11:08:16.139Z,7.92857
2022-12-25T11:09:16.171Z,8.42857
2022-12-25T11:10:16.201Z,8.92857
2022-12-25T11:11:16.270Z,8
2022-12-25T11:12:16.283Z,8.21429
2022-12-25T11:13:16.302Z,8.71429
2022-12-25T11:14:16.340Z,8.64286
2022-12-25T11:15:16.379Z,8
2022-12-25T11:16:16.516Z,9.35714
2022-12-25T11:17:16.437Z,8.42857
2022-12-25T11:18:16.478Z,8.92857
2022-12-25T11:19:16.518Z,9.35714
2022-12-25T11:20:16.556Z,8.5
2022-12-25T11:21:16.584Z,8.42857
2022-12-25T11:22:16.614Z,9
2022-12-25T11:23:16.656Z,8.14286
2022-12-25T11:24:16.681Z,8.85714
2022-12-25T11:25:16.708Z,8.5
2022-12-25T11:26:16.744Z,8.5
2022-12-25T11:27:16.780Z,8.64286
2022-12-25T11:28:16.816Z,8.35714
2022-12-25T11:29:16.847Z,8.71429
2022-12-25T11:30:16.879Z,7.92857
2022-12-25T11:31:16.947Z,8.14286
2022-12-25T11:32:16.956Z,8.14286
2022-12-25T11:33:16.988Z,8.5
2022-12-25T11:34:17.009Z,8.5
2022-12-25T11:35:17.057Z,8.92857
2022-12-25T11:36:17.089Z,8.5
2022-12-25T11:37:17.121Z,8.35714
2022-12-25T11:38:17.176Z,8.35714
2022-12-25T11:39:17.178Z,9.71429
2022-12-25T11:40:17.225Z,8.85714
2022-12-25T11:41:17.261Z,9.14286
2022-12-25T11:42:17.297Z,8.64286
2022-12-25T11:43:17.330Z,8.92857
2022-12-25T11:44:17.383Z,9.14286
2022-12-25T11:45:17.398Z,9.42857
2022-12-25T11:46:17.548Z,9.35714
2022-12-25T11:47:17.502Z,10.2143
2022-12-25T11:48:17.486Z,10.1429
2022-12-25T11:49:17.528Z,10.2143
2022-12-25T11:50:17.557Z,9.71429
2022-12-25T11:51:17.605Z,9.85714
2022-12-25T11:52:22.679Z,10.4286
2022-12-25T11:53:17.667Z,10.4286
2022-12-25T11:54:17.752Z,10
2022-12-25T11:55:17.740Z,10.7143
2022-12-25T11:56:17.757Z,10.1429
2022-12-25T11:57:17.799Z,10.6429
2022-12-25T11:58:17.827Z,9.92857
2022-12-25T11:59:18.389Z,9.92857
2022-12-25T12:00:17.904Z,10.1429
2022-12-25T12:01:17.962Z,9.5
2022-12-25T12:02:18.076Z,9.21429
2022-12-25T12:03:18.122Z,9.5
2022-12-25T12:04:18.038Z,10.1429
2022-12-25T12:05:18.067Z,9.92857
2022-12-25T12:06:18.105Z,10.1429
2022-12-25T12:07:18.167Z,9.85714
2022-12-25T12:08:18.173Z,10.7143
2022-12-25T12:09:18.196Z,10.5
2022-12-25T12:10:18.240Z,10.7143
2022-12-25T12:11:18.274Z,11.4286
2022-12-25T12:12:18.308Z,10.8571
2022-12-25T12:13:18.339Z,11.3571
2022-12-25T12:14:18.411Z,10.3571
2022-12-25T12:15:18.452Z,10.6429
2022-12-25T12:16:18.529Z,10.7143
2022-12-25T12:17:18.476Z,10.3571
2022-12-25T12:18:18.523Z,10.5
2022-12-25T12:19:18.557Z,10.3571
2022-12-25T12:20:18.595Z,10
2022-12-25T12:21:18.620Z,10.3571
2022-12-25T12:22:18.651Z,10.7143
2022-12-25T12:23:18.681Z,10.8571
2022-12-25T12:24:18.728Z,10.9286
2022-12-25T12:25:18.759Z,11.1429
2022-12-25T12:26:18.785Z,10
2022-12-25T12:27:18.823Z,11.3571
2022-12-25T12:28:18.845Z,10.7143